createdAt,value
2022-11-08T00:03:19.979Z,3.03
2022-11-08T00:09:00.053Z,1.95
2022-11-08T00:14:21.698Z,1.35
2022-11-08T00:19:44.264Z,0.95
2022-11-08T00:25:06.428Z,1.45
2022-11-08T00:30:28.096Z,1.05
2022-11-08T00:35:49.761Z,1.25
2022-11-08T00:41:12.324Z,0.75
2022-11-08T00:46:34.006Z,2.30
2022-11-08T00:51:55.675Z,2.13
2022-11-08T00:57:17.324Z,1.13
2022-11-08T01:02:39.058Z,3.70
2022-11-08T01:08:00.754Z,1.77
2022-11-08T01:13:22.943Z,1.23
2022-11-08T01:18:45.395Z,1.45
2022-11-08T01:24:07.702Z,2.55
2022-11-08T01:29:29.316Z,1.98
2022-11-08T01:34:51.189Z,1.17
2022-11-08T01:40:13.558Z,0.93
2022-11-08T01:46:12.897Z,1.95
2022-11-08T01:51:41.766Z,3.17
2022-11-08T01:57:07.293Z,0.82
2022-11-08T02:02:29.181Z,0.68
2022-11-08T02:08:05.231Z,2.05
2022-11-08T02:13:29.847Z,3.25
2022-11-08T02:18:51.589Z,2.65
2022-11-08T02:24:14.323Z,2.42
2022-11-08T02:29:36.324Z,1.65
2022-11-08T02:34:59.465Z,1.10
2022-11-08T02:40:21.092Z,0.98
2022-11-08T02:45:42.782Z,1.02
2022-11-08T02:51:04.478Z,1.13
2022-11-08T02:56:26.153Z,1.58
2022-11-08T03:01:47.944Z,1.55
2022-11-08T03:07:09.778Z,1.75
2022-11-08T03:12:31.432Z,0.95
2022-11-08T03:17:53.480Z,1.38
2022-11-08T03:23:15.637Z,1.38
2022-11-08T03:28:37.296Z,1.45
2022-11-08T03:33:58.934Z,0.90
2022-11-08T03:39:20.676Z,1.10
2022-11-08T03:44:42.342Z,1.58
2022-11-08T03:50:04.509Z,1.48
2022-11-08T03:55:27.812Z,0.77
2022-11-08T04:00:49.465Z,2.03
2022-11-08T04:06:11.105Z,1.70
2022-11-08T04:11:51.054Z,1.15
2022-11-08T04:17:12.797Z,0.95
2022-11-08T04:22:34.439Z,1.33
2022-11-08T04:27:56.164Z,1.80
2022-11-08T04:33:17.804Z,1.92
2022-11-08T04:38:39.558Z,0.60
2022-11-08T04:44:01.362Z,1.20
2022-11-08T04:49:23.004Z,1.38
2022-11-08T04:54:45.599Z,0.85
2022-11-08T05:00:07.860Z,2.13
2022-11-08T05:05:29.515Z,1.50
2022-11-08T05:10:51.181Z,0.60
2022-11-08T05:16:15.291Z,1.45
2022-11-08T05:21:55.913Z,1.25
2022-11-08T05:27:17.577Z,1.48
2022-11-08T05:32:39.256Z,0.65
2022-11-08T05:38:00.936Z,1.13
2022-11-08T05:43:22.587Z,1.20
2022-11-08T05:48:45.003Z,1.65
2022-11-08T05:54:08.213Z,0.70
2022-11-08T05:59:30.300Z,0.85
2022-11-08T06:04:51.937Z,0.60
2022-11-08T06:10:13.783Z,0.43
2022-11-08T06:15:35.493Z,1.67
2022-11-08T06:21:01.042Z,1.90
2022-11-08T06:31:44.697Z,0.70
2022-11-08T06:37:06.400Z,0.80
2022-11-08T06:42:28.074Z,0.75
2022-11-08T06:47:49.678Z,5.32
2022-11-08T06:53:13.832Z,1.52
2022-11-08T06:58:35.476Z,3.33
2022-11-08T07:03:57.112Z,6.97
2022-11-08T07:09:18.956Z,2.78
2022-11-08T07:14:40.633Z,3.03
2022-11-08T07:20:02.336Z,2.80
2022-11-08T07:25:25.282Z,2.13
2022-11-08T07:30:48.560Z,5.55
2022-11-08T07:36:10.235Z,5.57
2022-11-08T07:41:31.940Z,2.63
2022-11-08T07:46:53.605Z,4.20
2022-11-08T07:52:15.291Z,1.67
2022-11-08T07:57:36.931Z,3.65
2022-11-08T08:03:00.619Z,7.80
2022-11-08T08:08:22.754Z,5.30
2022-11-08T08:13:44.397Z,4.55
2022-11-08T08:19:06.189Z,4.60
2022-11-08T08:24:27.873Z,3.92
2022-11-08T08:29:50.665Z,2.63
2022-11-08T08:35:12.915Z,5.68
2022-11-08T08:40:34.794Z,4.95
2022-11-08T08:46:01.621Z,5.07
2022-11-08T08:51:23.387Z,3.13
2022-11-08T08:56:45.031Z,1.42
2022-11-08T09:02:06.647Z,2.78
2022-11-08T09:07:28.354Z,2.28
2022-11-08T09:12:50.928Z,1.60
2022-11-08T09:18:12.750Z,0.98
2022-11-08T09:23:34.452Z,1.75
2022-11-08T09:28:56.095Z,3.28
2022-11-08T09:34:20.738Z,1.20
2022-11-08T09:39:43.465Z,2.45
2022-11-08T09:45:22.251Z,4.97
2022-11-08T09:50:46.577Z,2.42
2022-11-08T09:56:33.696Z,1.33
2022-11-08T10:01:55.419Z,2.08
2022-11-08T10:07:33.266Z,4.28
2022-11-08T10:13:12.962Z,6.13
2022-11-08T10:18:45.810Z,4.28
2022-11-08T10:24:21.579Z,3.60
2022-11-08T10:29:46.662Z,2.72
2022-11-08T10:35:25.586Z,6.80
2022-11-08T10:41:03.255Z,2.92
2022-11-08T10:46:36.549Z,5.45
2022-11-08T10:52:13.079Z,2.80
2022-11-08T10:57:38.985Z,5.05
2022-11-08T11:03:16.462Z,7.63
2022-11-08T11:08:49.812Z,2.85
2022-11-08T11:14:22.050Z,2.40
2022-11-08T11:19:53.966Z,6.38
2022-11-08T11:25:21.685Z,3.50
2022-11-08T11:30:47.466Z,2.75
2022-11-08T11:36:15.277Z,3.72
2022-11-08T11:41:48.875Z,6.05
2022-11-08T11:47:19.480Z,5.93
2022-11-08T11:52:41.228Z,2.08
2022-11-08T11:58:20.623Z,2.38
2022-11-08T12:04:00.652Z,3.15
2022-11-08T12:09:40.304Z,3.05
2022-11-08T12:15:23.268Z,4.80
2022-11-08T12:21:02.017Z,3.47
2022-11-08T12:27:14.277Z,2.08
2022-11-08T12:32:55.050Z,7.40
2022-11-08T12:38:32.174Z,1.92
2022-11-08T12:44:30.670Z,1.83
2022-11-08T12:50:11.580Z,1.58
2022-11-08T12:55:37.039Z,3.30
2022-11-08T13:01:05.276Z,4.38
2022-11-08T13:06:35.558Z,1.75
2022-11-08T13:12:18.733Z,3.17
2022-11-08T13:17:40.448Z,2.50
2022-11-08T13:23:11.517Z,2.60
2022-11-08T13:28:45.753Z,3.85
2022-11-08T13:34:21.443Z,3.97
2022-11-08T13:40:04.763Z,3.60
2022-11-08T13:45:33.316Z,2.25
2022-11-08T13:51:18.586Z,3.05
2022-11-08T13:56:47.359Z,2.50
2022-11-08T14:02:24.009Z,1.42
2022-11-08T14:07:54.842Z,1.48
2022-11-08T14:13:22.520Z,2.08
2022-11-08T14:18:45.965Z,1.50
2022-11-08T14:24:17.339Z,0.95
2022-11-08T14:29:39.125Z,3.22
2022-11-08T14:35:19.700Z,2.45
2022-11-08T14:40:49.509Z,1.77
2022-11-08T14:46:13.800Z,1.08
2022-11-08T14:51:35.570Z,1.58
2022-11-08T14:56:57.231Z,1.50
2022-11-08T15:02:19.049Z,0.70
2022-11-08T15:07:40.807Z,1.05
2022-11-08T15:13:02.528Z,1.08
2022-11-08T15:18:31.264Z,1.17
2022-11-08T15:23:54.687Z,1.02
2022-11-08T15:29:19.651Z,1.17
2022-11-08T15:34:42.057Z,0.67
2022-11-08T15:40:05.806Z,1.77
2022-11-08T15:45:32.460Z,2.78
2022-11-08T15:50:58.079Z,1.38
2022-11-08T16:01:52.796Z,1.67
2022-11-08T16:07:14.537Z,1.13
2022-11-08T16:12:37.803Z,0.98
2022-11-08T16:18:00.506Z,1.08
2022-11-08T16:23:22.163Z,0.68
2022-11-08T16:28:44.619Z,1.42
2022-11-08T16:34:06.308Z,1.20
2022-11-08T16:39:28.513Z,2.15
2022-11-08T16:44:50.230Z,1.10
2022-11-08T16:50:26.026Z,6.10
2022-11-08T16:55:48.491Z,6.18
2022-11-08T17:01:18.064Z,3.38
2022-11-08T17:06:39.968Z,3.53
2022-11-08T17:12:01.698Z,8.70
2022-11-08T17:17:23.531Z,12.02
2022-11-08T17:22:46.127Z,9.82
2022-11-08T17:28:07.832Z,16.05
2022-11-08T17:33:29.482Z,11.10
2022-11-08T17:38:51.187Z,19.17
2022-11-08T17:44:12.958Z,7.65
2022-11-08T17:49:37.594Z,9.40
2022-11-08T17:55:01.643Z,14.10
2022-11-08T18:00:23.351Z,13.05
2022-11-08T18:05:56.098Z,6.22
2022-11-08T18:11:17.843Z,16.67
2022-11-08T18:16:39.503Z,12.43
2022-11-08T18:22:01.201Z,9.73
2022-11-08T18:27:22.878Z,10.93
2022-11-08T18:32:44.520Z,12.25
2022-11-08T18:38:06.199Z,14.05
2022-11-08T18:43:28.350Z,17.88
2022-11-08T18:48:50.913Z,21.00
2022-11-08T18:54:12.580Z,13.98
2022-11-08T18:59:34.294Z,10.57
2022-11-08T19:04:56.732Z,6.07
2022-11-08T19:10:18.412Z,8.30
2022-11-08T19:15:40.131Z,6.93
2022-11-08T19:21:25.489Z,6.32
2022-11-08T19:26:47.365Z,9.48
2022-11-08T19:32:09.117Z,7.75
2022-11-08T19:37:30.755Z,7.30
2022-11-08T19:42:52.447Z,5.28
2022-11-08T19:48:14.067Z,7.38
2022-11-08T19:53:35.715Z,5.40
2022-11-08T19:59:01.124Z,4.95
2022-11-08T20:04:23.267Z,5.30
2022-11-08T20:09:44.922Z,7.18
2022-11-08T20:15:07.493Z,6.60
2022-11-08T20:20:30.900Z,8.02
2022-11-08T20:25:52.565Z,9.13
2022-11-08T20:31:23.021Z,8.57
2022-11-08T20:36:45.084Z,33.63
2022-11-08T20:42:06.828Z,19.40
2022-11-08T20:47:28.494Z,9.93
2022-11-08T20:52:50.187Z,8.82
2022-11-08T20:58:11.866Z,13.95
2022-11-08T21:03:34.353Z,19.10
2022-11-08T21:09:00.380Z,13.40
2022-11-08T21:14:24.806Z,20.75
2022-11-08T21:19:48.390Z,16.83
2022-11-08T21:25:10.077Z,17.35
2022-11-08T21:30:31.846Z,17.67
2022-11-08T21:35:55.870Z,25.67
2022-11-08T21:41:17.588Z,19.20
2022-11-08T21:46:39.301Z,14.95
2022-11-08T21:52:02.314Z,13.27
2022-11-08T21:57:24.019Z,7.95
2022-11-08T22:02:45.738Z,5.72
2022-11-08T22:08:07.392Z,7.75
2022-11-08T22:13:29.114Z,9.05
2022-11-08T22:19:04.213Z,14.30
2022-11-08T22:24:26.729Z,5.95
2022-11-08T22:29:48.398Z,4.30
2022-11-08T22:35:10.104Z,3.70
2022-11-08T22:40:31.850Z,3.85
2022-11-08T22:45:53.518Z,3.08
2022-11-08T22:51:15.690Z,3.85
2022-11-08T22:56:38.326Z,5.93
2022-11-08T23:01:59.992Z,2.00
2022-11-08T23:07:21.630Z,1.30
2022-11-08T23:13:01.714Z,1.50
2022-11-08T23:18:24.192Z,5.00
2022-11-08T23:24:04.133Z,5.15
2022-11-08T23:29:44.404Z,1.67
2022-11-08T23:35:06.195Z,3.70
2022-11-08T23:40:46.064Z,2.47
2022-11-08T23:46:09.979Z,3.00
2022-11-08T23:51:31.744Z,1.08
2022-11-08T23:56:53.462Z,1.02
